createdAt,value
2017-12-30T00:01:42.305Z,10.17
2017-12-30T00:04:09.903Z,11.90
2017-12-30T00:06:37.567Z,12.53
2017-12-30T00:09:05.302Z,13.00
2017-12-30T00:11:32.911Z,12.40
2017-12-30T00:14:00.632Z,11.83
2017-12-30T00:16:28.243Z,10.70
2017-12-30T00:18:55.866Z,11.97
2017-12-30T00:21:23.535Z,12.00
2017-12-30T00:23:51.138Z,11.77
2017-12-30T00:26:18.802Z,12.60
2017-12-30T00:28:46.410Z,13.90
2017-12-30T00:31:14.014Z,12.43
2017-12-30T00:33:41.621Z,13.57
2017-12-30T00:36:09.226Z,13.27
2017-12-30T00:38:36.943Z,13.60
2017-12-30T00:41:04.549Z,11.40
2017-12-30T00:43:32.215Z,13.83
2017-12-30T00:45:59.887Z,13.07
2017-12-30T00:48:27.547Z,13.50
2017-12-30T00:50:55.207Z,11.43
2017-12-30T00:53:22.809Z,13.17
2017-12-30T00:55:50.410Z,11.17
2017-12-30T00:58:18.081Z,10.83
2017-12-30T01:00:45.691Z,12.47
2017-12-30T01:03:13.419Z,11.77
2017-12-30T01:05:41.029Z,13.30
2017-12-30T01:08:08.697Z,13.37
2017-12-30T01:10:36.358Z,10.90
2017-12-30T01:13:03.969Z,11.27
2017-12-30T01:15:31.640Z,11.60
2017-12-30T01:17:59.242Z,11.00
2017-12-30T01:20:26.842Z,13.10
2017-12-30T01:22:54.459Z,11.70
2017-12-30T01:25:22.058Z,12.10
2017-12-30T01:27:49.726Z,11.30
2017-12-30T01:30:17.327Z,10.47
2017-12-30T01:32:44.926Z,9.93
2017-12-30T01:35:12.539Z,11.23
2017-12-30T01:37:40.139Z,11.57
2017-12-30T01:40:07.797Z,11.40
2017-12-30T01:42:35.402Z,10.97
2017-12-30T01:45:03.010Z,12.27
2017-12-30T01:47:30.621Z,11.90
2017-12-30T01:49:58.223Z,10.83
2017-12-30T01:52:25.891Z,11.30
2017-12-30T01:54:53.506Z,10.30
2017-12-30T01:57:21.114Z,11.70
2017-12-30T01:59:48.787Z,12.10
2017-12-30T02:02:16.389Z,11.83
2017-12-30T02:04:44.111Z,11.80
2017-12-30T02:07:11.718Z,13.47
2017-12-30T02:09:39.379Z,10.67
2017-12-30T02:12:06.994Z,9.53
2017-12-30T02:14:34.599Z,9.87
2017-12-30T02:17:02.316Z,10.70
2017-12-30T02:19:29.922Z,9.67
2017-12-30T02:21:57.534Z,9.60
2017-12-30T02:24:25.143Z,10.20
2017-12-30T02:26:52.808Z,8.60
2017-12-30T02:29:20.463Z,9.87
2017-12-30T02:31:48.127Z,9.00
2017-12-30T02:34:15.737Z,8.63
2017-12-30T02:36:43.399Z,8.33
2017-12-30T02:39:11.046Z,8.70
2017-12-30T02:41:38.763Z,10.10
2017-12-30T02:44:06.359Z,10.03
2017-12-30T02:46:33.958Z,9.20
2017-12-30T02:49:01.574Z,8.80
2017-12-30T02:51:29.176Z,8.23
2017-12-30T02:53:56.886Z,9.00
2017-12-30T02:56:24.543Z,9.17
2017-12-30T02:58:52.203Z,8.83
2017-12-30T03:01:19.813Z,9.03
2017-12-30T03:03:47.415Z,9.00
2017-12-30T03:06:15.130Z,8.47
2017-12-30T03:08:42.740Z,9.53
2017-12-30T03:11:10.342Z,8.37
2017-12-30T03:13:38.003Z,8.67
2017-12-30T03:16:05.662Z,8.33
2017-12-30T03:18:33.326Z,8.10
2017-12-30T03:21:00.991Z,7.60
2017-12-30T03:23:28.659Z,7.60
2017-12-30T03:25:56.332Z,9.10
2017-12-30T03:28:23.927Z,8.10
2017-12-30T03:30:51.588Z,9.77
2017-12-30T03:33:19.258Z,9.93
2017-12-30T03:35:46.854Z,9.60
2017-12-30T03:38:14.526Z,8.93
2017-12-30T03:40:42.126Z,11.07
2017-12-30T03:43:09.859Z,11.20
2017-12-30T03:45:37.518Z,9.17
2017-12-30T03:48:05.122Z,10.70
2017-12-30T03:50:32.739Z,10.90
2017-12-30T03:53:00.412Z,10.37
2017-12-30T03:55:28.070Z,10.90
2017-12-30T03:57:55.773Z,10.37
2017-12-30T04:00:23.375Z,11.10
2017-12-30T04:02:51.050Z,10.90
2017-12-30T04:05:18.657Z,12.70
2017-12-30T04:07:46.362Z,10.63
2017-12-30T04:10:13.973Z,11.40
2017-12-30T04:12:41.606Z,11.90
2017-12-30T04:15:09.279Z,10.10
2017-12-30T04:17:36.879Z,9.93
2017-12-30T04:20:04.531Z,12.03
2017-12-30T04:22:32.191Z,10.80
2017-12-30T04:24:59.786Z,9.33
2017-12-30T04:27:27.397Z,9.90
2017-12-30T04:29:55.010Z,10.90
2017-12-30T04:32:22.662Z,10.67
2017-12-30T04:34:50.326Z,8.87
2017-12-30T04:37:17.994Z,11.57
2017-12-30T04:39:45.658Z,11.30
2017-12-30T04:42:13.322Z,11.50
2017-12-30T04:44:40.984Z,10.43
2017-12-30T04:47:08.587Z,12.00
2017-12-30T04:49:36.186Z,12.90
2017-12-30T04:52:03.799Z,14.47
2017-12-30T04:54:31.398Z,11.83
2017-12-30T04:56:59.067Z,12.57
2017-12-30T04:59:26.674Z,14.60
2017-12-30T05:01:54.285Z,14.10
2017-12-30T05:04:21.895Z,13.57
2017-12-30T05:06:49.506Z,16.97
2017-12-30T05:09:17.230Z,16.43
2017-12-30T05:11:44.890Z,14.33
2017-12-30T05:14:12.499Z,11.80
2017-12-30T05:16:40.107Z,10.90
2017-12-30T05:19:07.710Z,11.37
2017-12-30T05:21:35.546Z,11.70
2017-12-30T05:24:03.145Z,11.50
2017-12-30T05:26:30.862Z,10.53
2017-12-30T05:28:58.538Z,11.37
2017-12-30T05:31:26.151Z,11.30
2017-12-30T05:33:53.815Z,13.60
2017-12-30T05:36:21.483Z,11.93
2017-12-30T05:38:49.082Z,11.80
2017-12-30T05:41:16.689Z,12.47
2017-12-30T05:43:44.291Z,11.07
2017-12-30T05:46:11.942Z,12.17
2017-12-30T05:48:39.604Z,11.30
2017-12-30T05:51:07.219Z,10.80
2017-12-30T05:53:34.842Z,11.20
2017-12-30T05:56:02.502Z,10.47
2017-12-30T05:58:30.222Z,11.53
2017-12-30T06:00:57.839Z,11.23
2017-12-30T06:03:25.448Z,10.90
2017-12-30T06:05:53.124Z,12.60
2017-12-30T06:08:20.722Z,16.23
2017-12-30T06:10:48.383Z,12.60
2017-12-30T06:13:16.047Z,14.23
2017-12-30T06:15:43.658Z,12.93
2017-12-30T06:18:11.274Z,13.20
2017-12-30T06:20:38.873Z,13.43
2017-12-30T06:23:06.534Z,15.77
2017-12-30T06:25:34.145Z,15.33
2017-12-30T06:28:01.743Z,15.80
2017-12-30T06:30:29.346Z,16.40
2017-12-30T06:32:57.003Z,15.00
2017-12-30T06:35:24.659Z,15.93
2017-12-30T06:37:52.314Z,18.50
2017-12-30T06:40:19.914Z,17.73
2017-12-30T06:42:47.579Z,20.33
2017-12-30T06:45:15.248Z,14.60
2017-12-30T06:47:42.964Z,13.47
2017-12-30T06:50:10.628Z,13.10
2017-12-30T06:52:38.230Z,12.07
2017-12-30T06:55:05.850Z,11.40
2017-12-30T06:57:33.523Z,11.80
2017-12-30T07:00:01.200Z,11.60
2017-12-30T07:02:28.864Z,10.63
2017-12-30T07:04:56.471Z,10.57
2017-12-30T07:07:24.078Z,12.53
2017-12-30T07:09:51.691Z,11.37
2017-12-30T07:12:19.366Z,8.57
2017-12-30T07:14:47.040Z,9.10
2017-12-30T07:17:14.652Z,11.60
2017-12-30T07:19:42.319Z,10.50
2017-12-30T07:22:09.934Z,11.30
2017-12-30T07:24:37.599Z,12.10
2017-12-30T07:27:05.258Z,12.40
2017-12-30T07:29:32.868Z,11.87
2017-12-30T07:32:00.476Z,9.90
2017-12-30T07:34:28.089Z,11.03
2017-12-30T07:36:55.757Z,11.93
2017-12-30T07:39:23.423Z,10.87
2017-12-30T07:41:51.031Z,11.63
2017-12-30T07:44:18.699Z,9.47
2017-12-30T07:46:46.303Z,10.37
2017-12-30T07:49:13.963Z,10.80
2017-12-30T07:51:41.567Z,11.33
2017-12-30T07:54:09.228Z,12.17
2017-12-30T07:56:36.907Z,12.63
2017-12-30T07:59:04.575Z,21.20
2017-12-30T08:01:32.234Z,15.50
2017-12-30T08:03:59.903Z,13.57
2017-12-30T08:06:27.506Z,16.70
2017-12-30T08:08:55.170Z,14.80
2017-12-30T08:11:22.836Z,11.57
2017-12-30T08:13:50.559Z,10.37
2017-12-30T08:16:18.158Z,11.40
2017-12-30T08:18:45.762Z,16.70
2017-12-30T08:21:13.434Z,13.47
2017-12-30T08:23:41.030Z,13.00
2017-12-30T08:26:08.747Z,13.60
2017-12-30T08:28:36.439Z,13.13
2017-12-30T08:31:04.121Z,11.23
2017-12-30T08:33:31.738Z,10.43
2017-12-30T08:35:59.351Z,15.27
2017-12-30T08:38:27.011Z,16.33
2017-12-30T08:40:54.615Z,15.40
2017-12-30T08:43:22.228Z,20.07
2017-12-30T08:45:49.831Z,15.53
2017-12-30T08:48:17.425Z,23.73
2017-12-30T08:50:45.094Z,14.40
2017-12-30T08:53:12.695Z,12.90
2017-12-30T08:55:40.302Z,13.57
2017-12-30T08:58:07.910Z,12.10
2017-12-30T09:00:35.574Z,15.80
2017-12-30T09:03:03.291Z,12.87
2017-12-30T09:05:30.960Z,13.80
2017-12-30T09:07:58.555Z,14.23
2017-12-30T09:10:26.166Z,12.20
2017-12-30T09:12:53.837Z,10.27
2017-12-30T09:15:21.555Z,11.07
2017-12-30T09:17:49.225Z,9.03
2017-12-30T09:20:16.827Z,11.20
2017-12-30T09:22:44.430Z,14.63
2017-12-30T09:25:12.026Z,13.63
2017-12-30T09:27:39.698Z,10.27
2017-12-30T09:30:07.371Z,10.80
2017-12-30T09:32:35.035Z,10.07
2017-12-30T09:35:02.643Z,9.37
2017-12-30T09:37:30.296Z,9.83
2017-12-30T09:39:57.959Z,11.97
2017-12-30T09:42:25.635Z,11.43
2017-12-30T09:44:53.295Z,8.37
2017-12-30T09:47:20.902Z,9.93
2017-12-30T09:49:48.571Z,11.03
2017-12-30T09:52:16.233Z,12.70
2017-12-30T09:54:43.839Z,10.87
2017-12-30T09:57:11.504Z,9.83
2017-12-30T09:59:39.154Z,10.77
2017-12-30T10:02:06.746Z,9.90
2017-12-30T10:04:34.410Z,9.67
2017-12-30T10:07:02.019Z,11.57
2017-12-30T10:09:29.622Z,10.30
2017-12-30T10:11:57.299Z,11.03
2017-12-30T10:14:24.906Z,10.67
2017-12-30T10:16:52.623Z,8.00
2017-12-30T10:19:20.273Z,9.43
2017-12-30T10:21:47.934Z,9.27
2017-12-30T10:24:15.547Z,10.13
2017-12-30T10:26:43.150Z,9.00
2017-12-30T10:29:10.873Z,8.37
2017-12-30T10:31:38.477Z,9.47
2017-12-30T10:34:06.073Z,13.20
2017-12-30T10:36:33.750Z,8.40
2017-12-30T10:39:01.356Z,12.30
2017-12-30T10:41:29.074Z,10.00
2017-12-30T10:43:56.678Z,8.87
2017-12-30T10:46:24.292Z,10.60
2017-12-30T10:48:51.913Z,10.67
2017-12-30T10:51:19.515Z,9.07
2017-12-30T10:53:47.172Z,10.20
2017-12-30T10:56:14.835Z,9.93
2017-12-30T10:58:42.430Z,9.80
2017-12-30T11:01:10.097Z,9.97
2017-12-30T11:03:37.702Z,9.50
2017-12-30T11:06:05.355Z,9.37
2017-12-30T11:08:32.961Z,9.00
2017-12-30T11:11:00.590Z,10.10
2017-12-30T11:13:28.197Z,10.67
2017-12-30T11:15:55.799Z,8.90
2017-12-30T11:18:23.535Z,10.30
2017-12-30T11:20:51.154Z,8.73
2017-12-30T11:23:18.754Z,8.10
2017-12-30T11:25:46.379Z,9.23
2017-12-30T11:28:13.986Z,8.40
2017-12-30T11:30:41.698Z,10.10
2017-12-30T11:33:09.370Z,11.37
2017-12-30T11:35:37.136Z,11.20
2017-12-30T11:38:04.743Z,14.33
2017-12-30T11:40:32.353Z,12.50
2017-12-30T11:43:00.007Z,14.83
2017-12-30T11:45:27.624Z,14.30
2017-12-30T11:47:55.225Z,12.20
2017-12-30T11:50:22.830Z,11.80
2017-12-30T11:52:50.496Z,12.40
2017-12-30T11:55:18.154Z,11.60
2017-12-30T11:57:45.815Z,14.60
2017-12-30T12:00:13.474Z,14.47
2017-12-30T12:02:41.087Z,11.40
2017-12-30T12:05:08.694Z,45.73
2017-12-30T12:07:36.361Z,24.00
2017-12-30T12:10:04.053Z,15.27
2017-12-30T12:12:31.663Z,12.53
2017-12-30T12:14:59.362Z,25.90
2017-12-30T12:17:26.967Z,15.10
2017-12-30T12:19:54.659Z,15.10
2017-12-30T12:22:22.334Z,16.23
2017-12-30T12:24:50.008Z,16.20
2017-12-30T12:27:17.620Z,16.77
2017-12-30T12:29:45.229Z,15.57
2017-12-30T12:32:12.956Z,14.57
2017-12-30T12:34:40.566Z,14.80
2017-12-30T12:37:08.226Z,15.10
2017-12-30T12:39:35.838Z,17.53
2017-12-30T12:42:03.503Z,17.23
2017-12-30T12:44:31.229Z,17.50
2017-12-30T12:46:58.895Z,27.90
2017-12-30T12:49:26.503Z,20.37
2017-12-30T12:51:54.120Z,17.50
2017-12-30T12:54:21.750Z,17.00
2017-12-30T12:56:49.469Z,17.67
2017-12-30T12:59:17.079Z,22.70
2017-12-30T13:01:44.743Z,22.20
2017-12-30T13:04:12.366Z,16.80
2017-12-30T13:06:40.037Z,14.47
2017-12-30T13:09:07.759Z,15.70
2017-12-30T13:11:35.415Z,15.73
2017-12-30T13:14:03.079Z,17.40
2017-12-30T13:16:30.754Z,13.70
2017-12-30T13:18:58.358Z,16.67
2017-12-30T13:24:07.978Z,24.00
2017-12-30T13:26:35.647Z,20.33
2017-12-30T13:29:03.251Z,19.23
2017-12-30T13:31:30.858Z,20.13
2017-12-30T13:33:58.479Z,19.20
2017-12-30T13:36:26.148Z,17.60
2017-12-30T13:38:53.821Z,19.70
2017-12-30T13:41:21.482Z,20.37
2017-12-30T13:43:49.074Z,22.70
2017-12-30T13:46:16.767Z,20.17
2017-12-30T13:48:44.433Z,20.70
2017-12-30T13:51:12.106Z,21.90
2017-12-30T13:53:39.783Z,24.70
2017-12-30T13:56:07.393Z,22.20
2017-12-30T13:58:35.010Z,20.40
2017-12-30T14:01:02.618Z,20.47
2017-12-30T14:03:30.300Z,20.87
2017-12-30T14:05:57.908Z,16.77
2017-12-30T14:08:25.514Z,20.80
2017-12-30T14:10:53.122Z,21.30
2017-12-30T14:13:20.727Z,20.93
2017-12-30T14:15:48.390Z,23.97
2017-12-30T14:18:15.998Z,23.77
2017-12-30T14:20:43.615Z,24.80
2017-12-30T14:23:11.238Z,21.90
2017-12-30T14:25:38.907Z,14.60
2017-12-30T14:28:06.580Z,12.83
2017-12-30T14:30:34.186Z,13.83
2017-12-30T14:33:01.859Z,19.97
2017-12-30T14:35:29.468Z,22.03
2017-12-30T14:37:57.075Z,23.03
2017-12-30T14:40:24.737Z,22.00
2017-12-30T14:42:52.351Z,19.03
2017-12-30T14:45:19.950Z,20.43
2017-12-30T14:47:47.614Z,19.17
2017-12-30T14:50:15.238Z,18.90
2017-12-30T14:52:42.924Z,21.40
2017-12-30T14:55:10.531Z,19.03
2017-12-30T14:57:38.134Z,18.87
2017-12-30T15:00:05.811Z,19.90
2017-12-30T15:02:33.414Z,21.10
2017-12-30T15:05:01.077Z,19.23
2017-12-30T15:07:28.737Z,21.67
2017-12-30T15:09:56.404Z,23.17
2017-12-30T15:12:24.075Z,23.00
2017-12-30T15:14:51.679Z,26.27
2017-12-30T15:17:19.397Z,26.43
2017-12-30T15:19:46.995Z,26.30
2017-12-30T15:22:14.659Z,24.67
2017-12-30T15:24:42.339Z,25.00
2017-12-30T15:27:09.950Z,23.00
2017-12-30T15:29:37.622Z,24.73
2017-12-30T15:32:22.583Z,25.10
2017-12-30T15:34:50.267Z,23.37
2017-12-30T15:37:17.935Z,25.50
2017-12-30T15:39:45.545Z,25.57
2017-12-30T15:42:13.219Z,27.37
2017-12-30T15:44:40.822Z,28.20
2017-12-30T15:47:08.537Z,29.17
2017-12-30T15:49:36.130Z,26.47
2017-12-30T15:52:03.811Z,27.90
2017-12-30T15:54:31.436Z,27.73
2017-12-30T15:56:59.043Z,27.80
2017-12-30T15:59:26.754Z,29.80
2017-12-30T16:01:54.374Z,30.50
2017-12-30T16:04:21.983Z,41.33
2017-12-30T16:06:49.607Z,45.57
2017-12-30T16:09:17.289Z,39.47
2017-12-30T16:11:45.012Z,38.37
2017-12-30T16:14:12.624Z,33.53
2017-12-30T16:16:40.226Z,33.87
2017-12-30T16:19:07.853Z,37.00
2017-12-30T16:21:35.479Z,40.70
2017-12-30T16:24:03.130Z,42.83
2017-12-30T16:26:30.744Z,44.87
2017-12-30T16:28:58.346Z,50.57
2017-12-30T16:31:25.973Z,52.17
2017-12-30T16:33:53.646Z,54.70
2017-12-30T16:36:21.334Z,58.27
2017-12-30T16:38:49.005Z,56.30
2017-12-30T16:41:16.663Z,71.80
2017-12-30T16:43:44.283Z,78.30
2017-12-30T16:46:11.897Z,67.87
2017-12-30T16:48:39.633Z,70.50
2017-12-30T16:51:07.260Z,71.67
2017-12-30T16:53:34.885Z,72.23
2017-12-30T16:56:02.562Z,66.47
2017-12-30T16:58:30.222Z,67.30
2017-12-30T17:00:57.888Z,61.57
2017-12-30T17:03:25.495Z,68.27
2017-12-30T17:05:53.124Z,71.30
2017-12-30T17:08:21.478Z,77.03
2017-12-30T17:10:49.089Z,84.60
2017-12-30T17:13:16.757Z,96.87
2017-12-30T17:15:44.385Z,102.60
2017-12-30T17:18:12.006Z,120.97
2017-12-30T17:20:39.626Z,152.30
2017-12-30T17:23:08.404Z,118.57
2017-12-30T17:25:36.088Z,117.77
2017-12-30T17:28:03.761Z,101.67
2017-12-30T17:30:31.440Z,95.90
2017-12-30T17:32:59.125Z,97.23
2017-12-30T17:35:26.742Z,90.13
2017-12-30T17:37:54.471Z,82.07
2017-12-30T17:40:22.106Z,79.57
2017-12-30T17:42:49.775Z,66.63
2017-12-30T17:45:17.399Z,68.73
2017-12-30T17:47:45.032Z,67.37
2017-12-30T17:50:12.702Z,64.97
2017-12-30T17:52:40.335Z,66.27
2017-12-30T17:55:08.019Z,64.63
2017-12-30T17:57:35.649Z,64.73
2017-12-30T18:00:03.335Z,78.50
2017-12-30T18:02:30.998Z,74.17
2017-12-30T18:04:58.677Z,72.83
2017-12-30T18:07:26.320Z,75.80
2017-12-30T18:12:27.066Z,71.60
2017-12-30T18:14:54.679Z,71.37
2017-12-30T18:17:22.367Z,76.40
2017-12-30T18:19:49.979Z,71.50
2017-12-30T18:22:17.590Z,73.43
2017-12-30T18:24:45.214Z,78.53
2017-12-30T18:27:12.833Z,78.97
2017-12-30T18:29:40.500Z,74.70
2017-12-30T18:32:08.111Z,75.17
2017-12-30T18:34:35.794Z,79.43
2017-12-30T18:37:03.439Z,77.27
2017-12-30T18:39:31.042Z,77.10
2017-12-30T18:41:59.858Z,68.90
2017-12-30T18:44:27.531Z,71.07
2017-12-30T18:46:55.276Z,64.00
2017-12-30T18:49:22.891Z,69.63
2017-12-30T18:51:50.505Z,62.17
2017-12-30T18:54:18.275Z,60.73
2017-12-30T18:56:45.895Z,51.20
2017-12-30T18:59:13.506Z,51.00
2017-12-30T19:01:41.126Z,49.27
2017-12-30T19:04:08.787Z,43.73
2017-12-30T19:06:36.458Z,28.00
2017-12-30T19:09:04.231Z,25.00
2017-12-30T19:11:31.902Z,30.37
2017-12-30T19:13:59.523Z,20.03
2017-12-30T19:16:27.156Z,21.33
2017-12-30T19:18:54.826Z,16.37
2017-12-30T19:21:22.430Z,17.43
2017-12-30T19:23:50.029Z,16.90
2017-12-30T19:26:17.668Z,15.10
2017-12-30T19:28:45.283Z,13.07
2017-12-30T19:31:12.938Z,15.83
2017-12-30T19:33:40.533Z,13.63
2017-12-30T19:36:08.142Z,15.60
2017-12-30T19:38:35.825Z,15.10
2017-12-30T19:41:03.423Z,11.97
2017-12-30T19:43:31.078Z,13.00
2017-12-30T19:45:58.746Z,11.20
2017-12-30T19:48:26.417Z,12.43
2017-12-30T19:50:54.035Z,12.50
2017-12-30T19:53:21.634Z,16.70
2017-12-30T19:55:49.359Z,18.53
2017-12-30T19:58:17.946Z,16.30
2017-12-30T20:00:45.610Z,12.30
2017-12-30T20:03:13.292Z,13.57
2017-12-30T20:05:41.856Z,10.33
2017-12-30T20:08:09.570Z,14.10
2017-12-30T20:10:37.236Z,14.57
2017-12-30T20:13:05.570Z,15.27
2017-12-30T20:15:33.251Z,14.43
2017-12-30T20:18:00.854Z,13.27
2017-12-30T20:20:28.518Z,11.47
2017-12-30T20:22:56.127Z,10.50
2017-12-30T20:25:23.798Z,13.43
2017-12-30T20:27:51.422Z,21.30
2017-12-30T20:30:19.026Z,21.17
2017-12-30T20:32:46.690Z,20.00
2017-12-30T20:35:14.308Z,20.10
2017-12-30T20:37:41.922Z,18.40
2017-12-30T20:40:09.546Z,17.43
2017-12-30T20:42:37.145Z,17.27
2017-12-30T20:45:04.805Z,18.17
2017-12-30T20:47:32.425Z,17.20
2017-12-30T20:50:00.026Z,17.37
2017-12-30T20:52:27.718Z,15.63
2017-12-30T20:54:55.399Z,19.50
2017-12-30T20:57:23.130Z,24.10
2017-12-30T20:59:50.766Z,24.87
2017-12-30T21:02:18.383Z,21.97
2017-12-30T21:04:46.076Z,23.83
2017-12-30T21:07:13.701Z,19.70
2017-12-30T21:09:41.367Z,19.10
2017-12-30T21:12:09.044Z,17.20
2017-12-30T21:14:36.716Z,18.47
2017-12-30T21:17:04.347Z,18.73
2017-12-30T21:19:31.985Z,22.20
2017-12-30T21:21:59.733Z,19.70
2017-12-30T21:24:27.356Z,13.30
2017-12-30T21:26:54.974Z,12.63
2017-12-30T21:29:22.595Z,13.73
2017-12-30T21:31:50.222Z,10.47
2017-12-30T21:34:17.938Z,11.10
2017-12-30T21:36:45.550Z,10.50
2017-12-30T21:39:13.219Z,11.13
2017-12-30T21:41:40.904Z,7.37
2017-12-30T21:44:08.579Z,8.40
2017-12-30T21:46:36.346Z,9.00
2017-12-30T21:49:03.951Z,9.67
2017-12-30T21:51:31.619Z,13.30
2017-12-30T21:54:00.164Z,14.10
2017-12-30T21:56:27.780Z,12.37
2017-12-30T21:58:55.442Z,11.50
2017-12-30T22:01:23.047Z,12.80
2017-12-30T22:03:50.647Z,10.27
2017-12-30T22:06:18.325Z,10.17
2017-12-30T22:08:45.939Z,11.37
2017-12-30T22:11:13.604Z,12.97
2017-12-30T22:13:41.222Z,15.17
2017-12-30T22:16:08.903Z,15.30
2017-12-30T22:18:36.518Z,16.97
2017-12-30T22:21:04.127Z,16.77
2017-12-30T22:23:31.792Z,17.60
2017-12-30T22:25:59.463Z,15.87
2017-12-30T22:28:27.130Z,13.50
2017-12-30T22:30:54.810Z,12.67
2017-12-30T22:33:22.478Z,13.60
2017-12-30T22:35:50.142Z,16.47
2017-12-30T22:38:17.805Z,12.13
2017-12-30T22:40:45.414Z,11.33
2017-12-30T22:43:13.029Z,10.13
2017-12-30T22:45:40.635Z,8.40
2017-12-30T22:48:08.372Z,8.50
2017-12-30T22:50:35.985Z,7.47
2017-12-30T22:53:03.586Z,7.67
2017-12-30T22:55:31.195Z,8.00
2017-12-30T22:57:58.858Z,7.93
2017-12-30T23:00:39.449Z,9.47
2017-12-30T23:03:07.054Z,11.20
2017-12-30T23:05:34.661Z,10.97
2017-12-30T23:08:02.275Z,9.60
2017-12-30T23:10:29.878Z,10.77
2017-12-30T23:12:57.551Z,8.97
2017-12-30T23:15:25.183Z,7.73
2017-12-30T23:17:52.790Z,8.50
2017-12-30T23:20:20.407Z,8.80
2017-12-30T23:22:48.014Z,8.50
2017-12-30T23:25:15.675Z,9.10
2017-12-30T23:27:43.279Z,8.90
2017-12-30T23:30:10.878Z,7.10
2017-12-30T23:32:38.481Z,7.60
2017-12-30T23:35:06.110Z,7.20
2017-12-30T23:37:33.775Z,6.80
2017-12-30T23:40:01.378Z,7.07
2017-12-30T23:42:28.983Z,7.50
2017-12-30T23:44:56.658Z,7.20
2017-12-30T23:47:24.319Z,9.80
2017-12-30T23:49:51.979Z,11.30
2017-12-30T23:52:19.644Z,11.20
2017-12-30T23:54:47.307Z,9.97
2017-12-30T23:57:14.974Z,8.00
2017-12-30T23:59:42.630Z,7.87
